sensor_id;sensor_type;location;lat;lon;timestamp;P1;durP1;ratioP1;P2;durP2;ratioP2
29200;SDS011;16244;51.956;12.980;2023-04-15T00:00:41;7.03;;;6.53;;
29200;SDS011;16244;51.956;12.980;2023-04-15T00:03:08;6.70;;;6.27;;
29200;SDS011;16244;51.956;12.980;2023-04-15T00:05:36;8.30;;;7.70;;
29200;SDS011;16244;51.956;12.980;2023-04-15T00:08:05;8.03;;;7.23;;
29200;SDS011;16244;51.956;12.980;2023-04-15T00:10:32;7.53;;;6.93;;
29200;SDS011;16244;51.956;12.980;2023-04-15T00:13:00;8.83;;;8.03;;
29200;SDS011;16244;51.956;12.980;2023-04-15T00:15:34;9.07;;;8.27;;
29200;SDS011;16244;51.956;12.980;2023-04-15T00:18:02;10.10;;;9.20;;
29200;SDS011;16244;51.956;12.980;2023-04-15T00:20:30;9.90;;;9.00;;
29200;SDS011;16244;51.956;12.980;2023-04-15T00:22:57;9.37;;;8.40;;
29200;SDS011;16244;51.956;12.980;2023-04-15T00:25:26;10.60;;;9.47;;
29200;SDS011;16244;51.956;12.980;2023-04-15T00:27:54;12.17;;;10.00;;
29200;SDS011;16244;51.956;12.980;2023-04-15T00:30:21;10.63;;;9.53;;
29200;SDS011;16244;51.956;12.980;2023-04-15T00:32:49;9.97;;;9.07;;
29200;SDS011;16244;51.956;12.980;2023-04-15T00:35:17;10.30;;;8.87;;
29200;SDS011;16244;51.956;12.980;2023-04-15T00:37:44;11.50;;;9.57;;
29200;SDS011;16244;51.956;12.980;2023-04-15T00:40:12;9.27;;;8.53;;
29200;SDS011;16244;51.956;12.980;2023-04-15T00:42:42;10.10;;;9.10;;
29200;SDS011;16244;51.956;12.980;2023-04-15T00:45:10;10.23;;;9.23;;
29200;SDS011;16244;51.956;12.980;2023-04-15T00:47:38;11.87;;;10.67;;
29200;SDS011;16244;51.956;12.980;2023-04-15T00:50:09;12.00;;;10.90;;
29200;SDS011;16244;51.956;12.980;2023-04-15T00:52:38;11.93;;;10.73;;
29200;SDS011;16244;51.956;12.980;2023-04-15T00:55:06;12.50;;;10.33;;
29200;SDS011;16244;51.956;12.980;2023-04-15T00:57:36;12.20;;;11.00;;
29200;SDS011;16244;51.956;12.980;2023-04-15T01:00:06;13.03;;;11.13;;
29200;SDS011;16244;51.956;12.980;2023-04-15T01:02:36;13.80;;;11.60;;
29200;SDS011;16244;51.956;12.980;2023-04-15T01:05:04;14.07;;;10.90;;
29200;SDS011;16244;51.956;12.980;2023-04-15T01:07:32;14.17;;;10.90;;
29200;SDS011;16244;51.956;12.980;2023-04-15T01:10:00;14.17;;;11.70;;
29200;SDS011;16244;51.956;12.980;2023-04-15T01:12:28;14.87;;;11.40;;
29200;SDS011;16244;51.956;12.980;2023-04-15T01:14:58;16.03;;;11.50;;
29200;SDS011;16244;51.956;12.980;2023-04-15T01:17:27;16.83;;;12.37;;
29200;SDS011;16244;51.956;12.980;2023-04-15T01:19:55;16.97;;;13.50;;
29200;SDS011;16244;51.956;12.980;2023-04-15T01:22:23;15.60;;;12.60;;
29200;SDS011;16244;51.956;12.980;2023-04-15T01:24:54;17.47;;;12.13;;
29200;SDS011;16244;51.956;12.980;2023-04-15T01:27:28;17.40;;;12.53;;
29200;SDS011;16244;51.956;12.980;2023-04-15T01:29:56;16.30;;;12.37;;
29200;SDS011;16244;51.956;12.980;2023-04-15T01:32:24;20.43;;;13.47;;
29200;SDS011;16244;51.956;12.980;2023-04-15T01:34:51;17.80;;;13.47;;
29200;SDS011;16244;51.956;12.980;2023-04-15T01:37:19;17.57;;;12.33;;
29200;SDS011;16244;51.956;12.980;2023-04-15T01:39:47;15.90;;;11.90;;
29200;SDS011;16244;51.956;12.980;2023-04-15T01:42:14;16.33;;;12.83;;
29200;SDS011;16244;51.956;12.980;2023-04-15T01:44:43;15.30;;;12.80;;
29200;SDS011;16244;51.956;12.980;2023-04-15T01:47:11;17.23;;;12.70;;
29200;SDS011;16244;51.956;12.980;2023-04-15T01:49:39;17.80;;;12.27;;
29200;SDS011;16244;51.956;12.980;2023-04-15T01:52:06;19.57;;;13.07;;
29200;SDS011;16244;51.956;12.980;2023-04-15T01:54:34;20.70;;;13.20;;
29200;SDS011;16244;51.956;12.980;2023-04-15T01:57:01;15.33;;;12.90;;
29200;SDS011;16244;51.956;12.980;2023-04-15T01:59:30;18.23;;;12.93;;
29200;SDS011;16244;51.956;12.980;2023-04-15T02:01:59;20.53;;;13.23;;
29200;SDS011;16244;51.956;12.980;2023-04-15T02:04:27;19.47;;;14.63;;
29200;SDS011;16244;51.956;12.980;2023-04-15T02:06:54;21.67;;;14.20;;
29200;SDS011;16244;51.956;12.980;2023-04-15T02:09:22;21.60;;;13.57;;
29200;SDS011;16244;51.956;12.980;2023-04-15T02:11:49;18.43;;;13.10;;
29200;SDS011;16244;51.956;12.980;2023-04-15T02:14:17;19.20;;;13.30;;
29200;SDS011;16244;51.956;12.980;2023-04-15T02:16:45;21.70;;;13.90;;
29200;SDS011;16244;51.956;12.980;2023-04-15T02:19:14;15.20;;;12.30;;
29200;SDS011;16244;51.956;12.980;2023-04-15T02:21:41;17.93;;;13.13;;
29200;SDS011;16244;51.956;12.980;2023-04-15T02:24:09;18.10;;;13.13;;
29200;SDS011;16244;51.956;12.980;2023-04-15T02:26:36;20.60;;;14.37;;
29200;SDS011;16244;51.956;12.980;2023-04-15T02:29:04;21.87;;;14.50;;
29200;SDS011;16244;51.956;12.980;2023-04-15T02:31:32;17.73;;;13.20;;
29200;SDS011;16244;51.956;12.980;2023-04-15T02:34:02;20.00;;;13.83;;
29200;SDS011;16244;51.956;12.980;2023-04-15T02:36:32;20.23;;;14.00;;
29200;SDS011;16244;51.956;12.980;2023-04-15T02:38:59;20.27;;;14.67;;
29200;SDS011;16244;51.956;12.980;2023-04-15T02:41:27;21.30;;;13.87;;
29200;SDS011;16244;51.956;12.980;2023-04-15T02:43:55;21.53;;;15.53;;
29200;SDS011;16244;51.956;12.980;2023-04-15T02:46:23;23.80;;;15.20;;
29200;SDS011;16244;51.956;12.980;2023-04-15T02:48:50;22.20;;;14.70;;
29200;SDS011;16244;51.956;12.980;2023-04-15T02:51:19;17.77;;;13.70;;
29200;SDS011;16244;51.956;12.980;2023-04-15T02:53:49;22.47;;;15.37;;
29200;SDS011;16244;51.956;12.980;2023-04-15T02:56:17;25.03;;;14.87;;
29200;SDS011;16244;51.956;12.980;2023-04-15T02:58:44;22.17;;;15.30;;
29200;SDS011;16244;51.956;12.980;2023-04-15T03:01:12;22.60;;;13.63;;
29200;SDS011;16244;51.956;12.980;2023-04-15T03:03:39;27.83;;;15.90;;
29200;SDS011;16244;51.956;12.980;2023-04-15T03:06:07;29.17;;;15.93;;
29200;SDS011;16244;51.956;12.980;2023-04-15T03:08:34;28.60;;;16.60;;
29200;SDS011;16244;51.956;12.980;2023-04-15T03:11:03;32.37;;;18.30;;
29200;SDS011;16244;51.956;12.980;2023-04-15T03:13:32;31.43;;;17.37;;
29200;SDS011;16244;51.956;12.980;2023-04-15T03:16:00;30.50;;;18.00;;
29200;SDS011;16244;51.956;12.980;2023-04-15T03:18:27;27.90;;;16.40;;
29200;SDS011;16244;51.956;12.980;2023-04-15T03:20:55;29.90;;;16.57;;
29200;SDS011;16244;51.956;12.980;2023-04-15T03:23:22;33.50;;;18.97;;
29200;SDS011;16244;51.956;12.980;2023-04-15T03:25:51;34.80;;;18.50;;
29200;SDS011;16244;51.956;12.980;2023-04-15T03:28:22;34.73;;;20.10;;
29200;SDS011;16244;51.956;12.980;2023-04-15T03:30:49;35.33;;;19.40;;
29200;SDS011;16244;51.956;12.980;2023-04-15T03:33:17;37.87;;;20.60;;
29200;SDS011;16244;51.956;12.980;2023-04-15T03:35:44;36.20;;;20.17;;
29200;SDS011;16244;51.956;12.980;2023-04-15T03:38:12;37.83;;;19.23;;
29200;SDS011;16244;51.956;12.980;2023-04-15T03:40:39;40.60;;;22.30;;
29200;SDS011;16244;51.956;12.980;2023-04-15T03:43:07;40.70;;;22.03;;
29200;SDS011;16244;51.956;12.980;2023-04-15T03:45:36;42.63;;;21.70;;
29200;SDS011;16244;51.956;12.980;2023-04-15T03:48:04;44.60;;;22.83;;
29200;SDS011;16244;51.956;12.980;2023-04-15T03:50:31;47.43;;;24.27;;
29200;SDS011;16244;51.956;12.980;2023-04-15T03:52:59;49.70;;;23.77;;
29200;SDS011;16244;51.956;12.980;2023-04-15T03:55:26;44.97;;;22.67;;
29200;SDS011;16244;51.956;12.980;2023-04-15T03:57:54;50.30;;;25.50;;
29200;SDS011;16244;51.956;12.980;2023-04-15T04:00:24;51.40;;;25.60;;
29200;SDS011;16244;51.956;12.980;2023-04-15T04:02:53;57.70;;;26.07;;
29200;SDS011;16244;51.956;12.980;2023-04-15T04:05:21;52.80;;;27.70;;
29200;SDS011;16244;51.956;12.980;2023-04-15T04:07:48;46.20;;;24.90;;
29200;SDS011;16244;51.956;12.980;2023-04-15T04:10:16;52.80;;;26.60;;
29200;SDS011;16244;51.956;12.980;2023-04-15T04:12:43;58.53;;;27.30;;
29200;SDS011;16244;51.956;12.980;2023-04-15T04:15:11;47.97;;;25.87;;
29200;SDS011;16244;51.956;12.980;2023-04-15T04:17:38;53.80;;;26.00;;
29200;SDS011;16244;51.956;12.980;2023-04-15T04:20:08;51.67;;;26.37;;
29200;SDS011;16244;51.956;12.980;2023-04-15T04:22:37;47.60;;;25.87;;
29200;SDS011;16244;51.956;12.980;2023-04-15T04:25:05;61.87;;;27.97;;
29200;SDS011;16244;51.956;12.980;2023-04-15T04:27:33;53.37;;;26.13;;
29200;SDS011;16244;51.956;12.980;2023-04-15T04:30:01;56.90;;;27.47;;
29200;SDS011;16244;51.956;12.980;2023-04-15T04:32:28;60.73;;;28.20;;
29200;SDS011;16244;51.956;12.980;2023-04-15T04:34:56;55.73;;;27.20;;
29200;SDS011;16244;51.956;12.980;2023-04-15T04:37:25;64.77;;;29.17;;
29200;SDS011;16244;51.956;12.980;2023-04-15T04:39:52;58.23;;;28.07;;
29200;SDS011;16244;51.956;12.980;2023-04-15T04:42:20;57.50;;;27.87;;
29200;SDS011;16244;51.956;12.980;2023-04-15T04:44:48;70.77;;;29.63;;
29200;SDS011;16244;51.956;12.980;2023-04-15T04:47:15;62.77;;;29.90;;
29200;SDS011;16244;51.956;12.980;2023-04-15T04:49:43;59.27;;;29.60;;
29200;SDS011;16244;51.956;12.980;2023-04-15T04:52:10;71.83;;;31.93;;
29200;SDS011;16244;51.956;12.980;2023-04-15T04:54:39;71.57;;;32.53;;
29200;SDS011;16244;51.956;12.980;2023-04-15T04:57:07;73.00;;;32.73;;
29200;SDS011;16244;51.956;12.980;2023-04-15T04:59:34;66.87;;;31.93;;
29200;SDS011;16244;51.956;12.980;2023-04-15T05:02:02;226.27;;;102.60;;
29200;SDS011;16244;51.956;12.980;2023-04-15T05:04:30;242.03;;;100.00;;
29200;SDS011;16244;51.956;12.980;2023-04-15T05:06:57;99.03;;;44.73;;
29200;SDS011;16244;51.956;12.980;2023-04-15T05:09:25;85.03;;;38.33;;
29200;SDS011;16244;51.956;12.980;2023-04-15T05:11:54;95.90;;;41.60;;
29200;SDS011;16244;51.956;12.980;2023-04-15T05:14:21;87.17;;;38.20;;
29200;SDS011;16244;51.956;12.980;2023-04-15T05:16:49;81.67;;;36.67;;
29200;SDS011;16244;51.956;12.980;2023-04-15T05:19:17;88.80;;;36.30;;
29200;SDS011;16244;51.956;12.980;2023-04-15T05:21:44;80.27;;;36.93;;
29200;SDS011;16244;51.956;12.980;2023-04-15T05:24:12;81.10;;;36.37;;
29200;SDS011;16244;51.956;12.980;2023-04-15T05:26:39;91.97;;;42.20;;
29200;SDS011;16244;51.956;12.980;2023-04-15T05:29:08;84.73;;;36.03;;
29200;SDS011;16244;51.956;12.980;2023-04-15T05:31:36;74.47;;;35.40;;
29200;SDS011;16244;51.956;12.980;2023-04-15T05:34:03;93.57;;;38.60;;
29200;SDS011;16244;51.956;12.980;2023-04-15T05:36:31;84.93;;;36.90;;
29200;SDS011;16244;51.956;12.980;2023-04-15T05:38:59;94.10;;;42.00;;
29200;SDS011;16244;51.956;12.980;2023-04-15T05:41:26;90.60;;;36.60;;
29200;SDS011;16244;51.956;12.980;2023-04-15T05:43:54;84.30;;;36.73;;
29200;SDS011;16244;51.956;12.980;2023-04-15T05:46:26;77.97;;;36.93;;
29200;SDS011;16244;51.956;12.980;2023-04-15T05:48:53;84.83;;;37.80;;
29200;SDS011;16244;51.956;12.980;2023-04-15T05:51:21;85.43;;;37.40;;
29200;SDS011;16244;51.956;12.980;2023-04-15T05:53:48;86.07;;;36.47;;
29200;SDS011;16244;51.956;12.980;2023-04-15T05:56:16;76.53;;;35.77;;
29200;SDS011;16244;51.956;12.980;2023-04-15T05:58:45;77.50;;;37.37;;
29200;SDS011;16244;51.956;12.980;2023-04-15T06:01:12;81.10;;;36.93;;
29200;SDS011;16244;51.956;12.980;2023-04-15T06:03:44;87.50;;;37.63;;
29200;SDS011;16244;51.956;12.980;2023-04-15T06:06:12;85.87;;;40.10;;
29200;SDS011;16244;51.956;12.980;2023-04-15T06:08:40;97.17;;;43.10;;
29200;SDS011;16244;51.956;12.980;2023-04-15T06:11:07;85.47;;;39.30;;
29200;SDS011;16244;51.956;12.980;2023-04-15T06:13:35;75.20;;;35.13;;
29200;SDS011;16244;51.956;12.980;2023-04-15T06:16:02;83.53;;;36.17;;
29200;SDS011;16244;51.956;12.980;2023-04-15T06:18:30;93.80;;;43.33;;
29200;SDS011;16244;51.956;12.980;2023-04-15T06:20:59;80.17;;;38.53;;
29200;SDS011;16244;51.956;12.980;2023-04-15T06:23:27;70.60;;;35.30;;
29200;SDS011;16244;51.956;12.980;2023-04-15T06:25:54;71.13;;;36.43;;
29200;SDS011;16244;51.956;12.980;2023-04-15T06:28:22;73.90;;;35.20;;
29200;SDS011;16244;51.956;12.980;2023-04-15T06:30:49;69.87;;;32.80;;
29200;SDS011;16244;51.956;12.980;2023-04-15T06:33:16;62.30;;;33.47;;
29200;SDS011;16244;51.956;12.980;2023-04-15T06:35:44;69.50;;;33.30;;
29200;SDS011;16244;51.956;12.980;2023-04-15T06:38:13;66.87;;;33.00;;
29200;SDS011;16244;51.956;12.980;2023-04-15T06:40:41;56.03;;;30.37;;
29200;SDS011;16244;51.956;12.980;2023-04-15T06:43:08;59.60;;;32.80;;
29200;SDS011;16244;51.956;12.980;2023-04-15T06:45:36;61.77;;;32.57;;
29200;SDS011;16244;51.956;12.980;2023-04-15T06:48:04;58.37;;;31.00;;
29200;SDS011;16244;51.956;12.980;2023-04-15T06:50:32;58.73;;;31.37;;
29200;SDS011;16244;51.956;12.980;2023-04-15T06:53:00;53.57;;;29.67;;
29200;SDS011;16244;51.956;12.980;2023-04-15T06:55:29;54.87;;;29.77;;
29200;SDS011;16244;51.956;12.980;2023-04-15T06:57:58;52.80;;;29.67;;
29200;SDS011;16244;51.956;12.980;2023-04-15T07:00:26;55.07;;;29.20;;
29200;SDS011;16244;51.956;12.980;2023-04-15T07:02:54;48.43;;;28.77;;
29200;SDS011;16244;51.956;12.980;2023-04-15T07:05:25;51.00;;;29.13;;
29200;SDS011;16244;51.956;12.980;2023-04-15T07:07:52;49.30;;;28.80;;
29200;SDS011;16244;51.956;12.980;2023-04-15T07:10:21;55.63;;;28.83;;
29200;SDS011;16244;51.956;12.980;2023-04-15T07:12:50;52.40;;;28.80;;
29200;SDS011;16244;51.956;12.980;2023-04-15T07:15:18;50.27;;;29.60;;
29200;SDS011;16244;51.956;12.980;2023-04-15T07:17:45;47.47;;;28.93;;
29200;SDS011;16244;51.956;12.980;2023-04-15T07:20:13;47.37;;;28.70;;
29200;SDS011;16244;51.956;12.980;2023-04-15T07:22:40;43.23;;;27.17;;
29200;SDS011;16244;51.956;12.980;2023-04-15T07:25:08;40.90;;;26.50;;
29200;SDS011;16244;51.956;12.980;2023-04-15T07:27:36;43.77;;;27.70;;
29200;SDS011;16244;51.956;12.980;2023-04-15T07:30:05;62.20;;;29.30;;
29200;SDS011;16244;51.956;12.980;2023-04-15T07:32:34;47.83;;;29.33;;
29200;SDS011;16244;51.956;12.980;2023-04-15T07:35:02;45.00;;;27.63;;
29200;SDS011;16244;51.956;12.980;2023-04-15T07:37:29;41.53;;;27.00;;
29200;SDS011;16244;51.956;12.980;2023-04-15T07:39:57;45.80;;;25.50;;
29200;SDS011;16244;51.956;12.980;2023-04-15T07:42:25;37.70;;;27.50;;
29200;SDS011;16244;51.956;12.980;2023-04-15T07:44:52;41.93;;;28.10;;
29200;SDS011;16244;51.956;12.980;2023-04-15T07:47:21;36.83;;;24.90;;
29200;SDS011;16244;51.956;12.980;2023-04-15T07:49:48;45.17;;;26.50;;
29200;SDS011;16244;51.956;12.980;2023-04-15T07:52:17;39.90;;;24.73;;
29200;SDS011;16244;51.956;12.980;2023-04-15T07:54:44;36.23;;;24.83;;
29200;SDS011;16244;51.956;12.980;2023-04-15T07:57:12;31.70;;;22.93;;
29200;SDS011;16244;51.956;12.980;2023-04-15T07:59:39;33.90;;;23.40;;
29200;SDS011;16244;51.956;12.980;2023-04-15T08:02:07;35.83;;;24.80;;
29200;SDS011;16244;51.956;12.980;2023-04-15T08:04:36;40.33;;;23.70;;
29200;SDS011;16244;51.956;12.980;2023-04-15T08:07:04;33.20;;;22.80;;
29200;SDS011;16244;51.956;12.980;2023-04-15T08:09:31;31.13;;;22.57;;
29200;SDS011;16244;51.956;12.980;2023-04-15T08:11:59;26.20;;;21.80;;
29200;SDS011;16244;51.956;12.980;2023-04-15T08:14:27;27.23;;;21.20;;
29200;SDS011;16244;51.956;12.980;2023-04-15T08:16:55;28.80;;;20.60;;
29200;SDS011;16244;51.956;12.980;2023-04-15T08:19:41;30.97;;;20.30;;
29200;SDS011;16244;51.956;12.980;2023-04-15T08:22:09;28.70;;;21.63;;
29200;SDS011;16244;51.956;12.980;2023-04-15T08:24:37;28.67;;;20.60;;
29200;SDS011;16244;51.956;12.980;2023-04-15T08:27:05;26.20;;;20.70;;
29200;SDS011;16244;51.956;12.980;2023-04-15T08:29:33;25.87;;;20.93;;
29200;SDS011;16244;51.956;12.980;2023-04-15T08:32:00;30.83;;;21.20;;
29200;SDS011;16244;51.956;12.980;2023-04-15T08:34:28;23.73;;;19.63;;
29200;SDS011;16244;51.956;12.980;2023-04-15T08:36:58;26.10;;;20.10;;
29200;SDS011;16244;51.956;12.980;2023-04-15T08:39:25;26.63;;;20.50;;
29200;SDS011;16244;51.956;12.980;2023-04-15T08:41:55;24.13;;;19.30;;
29200;SDS011;16244;51.956;12.980;2023-04-15T08:44:27;21.70;;;18.77;;
29200;SDS011;16244;51.956;12.980;2023-04-15T08:46:56;20.33;;;18.20;;
29200;SDS011;16244;51.956;12.980;2023-04-15T08:49:28;27.43;;;19.10;;
29200;SDS011;16244;51.956;12.980;2023-04-15T08:51:58;21.77;;;18.87;;
29200;SDS011;16244;51.956;12.980;2023-04-15T08:54:26;23.67;;;21.07;;
29200;SDS011;16244;51.956;12.980;2023-04-15T08:56:54;25.80;;;19.13;;
29200;SDS011;16244;51.956;12.980;2023-04-15T08:59:23;28.53;;;20.77;;
29200;SDS011;16244;51.956;12.980;2023-04-15T09:01:51;23.90;;;18.90;;
29200;SDS011;16244;51.956;12.980;2023-04-15T09:04:20;22.80;;;17.80;;
29200;SDS011;16244;51.956;12.980;2023-04-15T09:06:48;23.70;;;18.97;;
29200;SDS011;16244;51.956;12.980;2023-04-15T09:09:18;24.90;;;19.60;;
29200;SDS011;16244;51.956;12.980;2023-04-15T09:11:45;25.33;;;18.90;;
29200;SDS011;16244;51.956;12.980;2023-04-15T09:14:14;24.70;;;18.80;;
29200;SDS011;16244;51.956;12.980;2023-04-15T09:16:54;24.00;;;18.83;;
29200;SDS011;16244;51.956;12.980;2023-04-15T09:19:23;23.63;;;18.23;;
29200;SDS011;16244;51.956;12.980;2023-04-15T09:21:52;23.73;;;18.80;;
29200;SDS011;16244;51.956;12.980;2023-04-15T09:24:23;25.23;;;19.30;;
29200;SDS011;16244;51.956;12.980;2023-04-15T09:26:52;21.10;;;18.80;;
29200;SDS011;16244;51.956;12.980;2023-04-15T09:29:21;21.03;;;18.00;;
29200;SDS011;16244;51.956;12.980;2023-04-15T09:31:51;21.50;;;18.23;;
29200;SDS011;16244;51.956;12.980;2023-04-15T09:34:19;19.63;;;17.47;;
29200;SDS011;16244;51.956;12.980;2023-04-15T09:36:54;27.43;;;18.53;;
29200;SDS011;16244;51.956;12.980;2023-04-15T09:39:23;21.60;;;18.37;;
29200;SDS011;16244;51.956;12.980;2023-04-15T09:42:04;22.97;;;19.80;;
29200;SDS011;16244;51.956;12.980;2023-04-15T09:44:32;21.10;;;18.20;;
29200;SDS011;16244;51.956;12.980;2023-04-15T09:47:00;23.90;;;19.17;;
29200;SDS011;16244;51.956;12.980;2023-04-15T09:49:30;18.53;;;16.27;;
29200;SDS011;16244;51.956;12.980;2023-04-15T09:51:58;24.27;;;18.60;;
29200;SDS011;16244;51.956;12.980;2023-04-15T09:54:33;22.50;;;17.90;;
29200;SDS011;16244;51.956;12.980;2023-04-15T09:57:05;21.43;;;19.07;;
29200;SDS011;16244;51.956;12.980;2023-04-15T09:59:33;19.13;;;17.03;;
29200;SDS011;16244;51.956;12.980;2023-04-15T10:02:01;24.43;;;18.80;;
29200;SDS011;16244;51.956;12.980;2023-04-15T10:04:32;21.50;;;18.27;;
29200;SDS011;16244;51.956;12.980;2023-04-15T10:07:03;22.50;;;18.00;;
29200;SDS011;16244;51.956;12.980;2023-04-15T10:09:33;22.87;;;18.10;;
29200;SDS011;16244;51.956;12.980;2023-04-15T10:12:02;24.70;;;20.00;;
29200;SDS011;16244;51.956;12.980;2023-04-15T10:14:31;24.60;;;19.90;;
29200;SDS011;16244;51.956;12.980;2023-04-15T10:17:01;34.07;;;22.23;;
29200;SDS011;16244;51.956;12.980;2023-04-15T10:19:32;22.60;;;18.57;;
29200;SDS011;16244;51.956;12.980;2023-04-15T10:22:02;23.67;;;19.83;;
29200;SDS011;16244;51.956;12.980;2023-04-15T10:24:30;24.07;;;18.90;;
29200;SDS011;16244;51.956;12.980;2023-04-15T10:26:59;23.17;;;20.17;;
29200;SDS011;16244;51.956;12.980;2023-04-15T10:29:29;24.60;;;19.47;;
29200;SDS011;16244;51.956;12.980;2023-04-15T10:31:56;25.13;;;21.90;;
29200;SDS011;16244;51.956;12.980;2023-04-15T10:34:25;26.50;;;21.20;;
29200;SDS011;16244;51.956;12.980;2023-04-15T10:36:54;24.10;;;19.27;;
29200;SDS011;16244;51.956;12.980;2023-04-15T10:39:37;21.07;;;18.87;;
29200;SDS011;16244;51.956;12.980;2023-04-15T10:42:11;24.37;;;19.97;;
29200;SDS011;16244;51.956;12.980;2023-04-15T10:44:40;22.70;;;20.27;;
29200;SDS011;16244;51.956;12.980;2023-04-15T10:47:10;21.90;;;18.67;;
29200;SDS011;16244;51.956;12.980;2023-04-15T10:49:45;20.30;;;18.30;;
29200;SDS011;16244;51.956;12.980;2023-04-15T10:52:15;27.00;;;21.30;;
29200;SDS011;16244;51.956;12.980;2023-04-15T10:54:43;24.13;;;19.03;;
29200;SDS011;16244;51.956;12.980;2023-04-15T10:57:21;19.27;;;17.17;;
29200;SDS011;16244;51.956;12.980;2023-04-15T11:00:10;25.00;;;17.70;;
29200;SDS011;16244;51.956;12.980;2023-04-15T11:02:39;23.17;;;19.50;;
29200;SDS011;16244;51.956;12.980;2023-04-15T11:05:08;18.87;;;16.97;;
29200;SDS011;16244;51.956;12.980;2023-04-15T11:07:37;25.87;;;18.10;;
29200;SDS011;16244;51.956;12.980;2023-04-15T11:13:18;22.83;;;17.20;;
29200;SDS011;16244;51.956;12.980;2023-04-15T11:15:48;19.03;;;16.90;;
29200;SDS011;16244;51.956;12.980;2023-04-15T11:18:17;18.00;;;16.30;;
29200;SDS011;16244;51.956;12.980;2023-04-15T11:20:46;16.20;;;14.23;;
29200;SDS011;16244;51.956;12.980;2023-04-15T11:23:16;16.80;;;15.00;;
29200;SDS011;16244;51.956;12.980;2023-04-15T11:25:45;15.57;;;14.00;;
29200;SDS011;16244;51.956;12.980;2023-04-15T11:28:13;15.93;;;14.53;;
29200;SDS011;16244;51.956;12.980;2023-04-15T11:30:42;16.60;;;14.90;;
29200;SDS011;16244;51.956;12.980;2023-04-15T11:33:10;16.60;;;14.90;;
29200;SDS011;16244;51.956;12.980;2023-04-15T11:35:39;19.93;;;15.90;;
29200;SDS011;16244;51.956;12.980;2023-04-15T11:38:10;15.77;;;14.17;;
29200;SDS011;16244;51.956;12.980;2023-04-15T11:40:40;15.17;;;13.83;;
29200;SDS011;16244;51.956;12.980;2023-04-15T11:43:09;14.87;;;13.57;;
29200;SDS011;16244;51.956;12.980;2023-04-15T11:45:47;14.70;;;13.40;;
29200;SDS011;16244;51.956;12.980;2023-04-15T11:48:21;20.03;;;16.97;;
29200;SDS011;16244;51.956;12.980;2023-04-15T11:50:53;15.23;;;13.90;;
29200;SDS011;16244;51.956;12.980;2023-04-15T11:53:22;16.97;;;15.27;;
29200;SDS011;16244;51.956;12.980;2023-04-15T11:55:51;16.40;;;14.83;;
29200;SDS011;16244;51.956;12.980;2023-04-15T11:58:20;15.80;;;14.30;;
29200;SDS011;16244;51.956;12.980;2023-04-15T12:00:50;14.83;;;13.53;;
29200;SDS011;16244;51.956;12.980;2023-04-15T12:03:24;14.83;;;13.47;;
29200;SDS011;16244;51.956;12.980;2023-04-15T12:06:03;12.97;;;11.80;;
29200;SDS011;16244;51.956;12.980;2023-04-15T12:08:58;16.13;;;14.37;;
29200;SDS011;16244;51.956;12.980;2023-04-15T12:11:31;13.97;;;12.57;;
29200;SDS011;16244;51.956;12.980;2023-04-15T12:14:05;16.47;;;14.77;;
29200;SDS011;16244;51.956;12.980;2023-04-15T12:16:36;13.27;;;12.10;;
29200;SDS011;16244;51.956;12.980;2023-04-15T12:19:06;11.93;;;10.90;;
29200;SDS011;16244;51.956;12.980;2023-04-15T12:21:37;11.50;;;10.70;;
29200;SDS011;16244;51.956;12.980;2023-04-15T12:24:08;12.20;;;11.10;;
29200;SDS011;16244;51.956;12.980;2023-04-15T12:26:42;12.43;;;11.30;;
29200;SDS011;16244;51.956;12.980;2023-04-15T12:29:12;14.00;;;12.70;;
29200;SDS011;16244;51.956;12.980;2023-04-15T12:31:49;13.00;;;11.90;;
29200;SDS011;16244;51.956;12.980;2023-04-15T12:34:17;12.23;;;11.00;;
29200;SDS011;16244;51.956;12.980;2023-04-15T12:36:53;10.70;;;9.90;;
29200;SDS011;16244;51.956;12.980;2023-04-15T12:39:22;11.80;;;10.80;;
29200;SDS011;16244;51.956;12.980;2023-04-15T12:41:50;12.17;;;11.20;;
29200;SDS011;16244;51.956;12.980;2023-04-15T12:44:17;11.50;;;10.60;;
29200;SDS011;16244;51.956;12.980;2023-04-15T12:46:45;10.43;;;9.73;;
29200;SDS011;16244;51.956;12.980;2023-04-15T12:49:15;9.90;;;9.20;;
29200;SDS011;16244;51.956;12.980;2023-04-15T12:51:46;9.90;;;9.00;;
29200;SDS011;16244;51.956;12.980;2023-04-15T12:54:19;9.77;;;9.00;;
29200;SDS011;16244;51.956;12.980;2023-04-15T12:56:48;10.60;;;9.80;;
29200;SDS011;16244;51.956;12.980;2023-04-15T12:59:16;9.40;;;8.77;;
29200;SDS011;16244;51.956;12.980;2023-04-15T13:01:44;9.10;;;8.50;;
29200;SDS011;16244;51.956;12.980;2023-04-15T13:04:12;7.37;;;6.87;;
29200;SDS011;16244;51.956;12.980;2023-04-15T13:06:41;8.07;;;7.63;;
29200;SDS011;16244;51.956;12.980;2023-04-15T13:09:09;8.10;;;7.57;;
29200;SDS011;16244;51.956;12.980;2023-04-15T13:11:37;8.23;;;7.63;;
29200;SDS011;16244;51.956;12.980;2023-04-15T13:14:05;8.57;;;8.07;;
29200;SDS011;16244;51.956;12.980;2023-04-15T13:16:34;10.13;;;9.33;;
29200;SDS011;16244;51.956;12.980;2023-04-15T13:19:02;9.60;;;8.90;;
29200;SDS011;16244;51.956;12.980;2023-04-15T13:21:30;8.03;;;7.63;;
29200;SDS011;16244;51.956;12.980;2023-04-15T13:24:01;8.63;;;7.90;;
29200;SDS011;16244;51.956;12.980;2023-04-15T13:26:29;9.00;;;8.50;;
29200;SDS011;16244;51.956;12.980;2023-04-15T13:28:57;8.40;;;7.80;;
29200;SDS011;16244;51.956;12.980;2023-04-15T13:31:24;7.83;;;7.50;;
29200;SDS011;16244;51.956;12.980;2023-04-15T13:33:52;8.87;;;8.33;;
29200;SDS011;16244;51.956;12.980;2023-04-15T13:36:20;7.63;;;7.33;;
29200;SDS011;16244;51.956;12.980;2023-04-15T13:38:47;7.90;;;7.50;;
29200;SDS011;16244;51.956;12.980;2023-04-15T13:41:16;8.10;;;7.50;;
29200;SDS011;16244;51.956;12.980;2023-04-15T13:43:44;8.40;;;7.80;;
29200;SDS011;16244;51.956;12.980;2023-04-15T13:46:12;8.03;;;7.53;;
29200;SDS011;16244;51.956;12.980;2023-04-15T13:48:40;7.63;;;7.23;;
29200;SDS011;16244;51.956;12.980;2023-04-15T13:51:08;7.50;;;7.20;;
29200;SDS011;16244;51.956;12.980;2023-04-15T13:53:35;8.53;;;8.10;;
29200;SDS011;16244;51.956;12.980;2023-04-15T13:56:03;8.13;;;7.63;;
29200;SDS011;16244;51.956;12.980;2023-04-15T13:58:32;8.17;;;7.67;;
29200;SDS011;16244;51.956;12.980;2023-04-15T14:01:00;9.43;;;8.83;;
29200;SDS011;16244;51.956;12.980;2023-04-15T14:03:27;9.30;;;8.60;;
29200;SDS011;16244;51.956;12.980;2023-04-15T14:05:54;9.50;;;8.90;;
29200;SDS011;16244;51.956;12.980;2023-04-15T14:08:23;9.50;;;8.63;;
29200;SDS011;16244;51.956;12.980;2023-04-15T14:10:51;9.53;;;8.83;;
29200;SDS011;16244;51.956;12.980;2023-04-15T14:13:19;8.47;;;7.97;;
29200;SDS011;16244;51.956;12.980;2023-04-15T14:15:47;9.40;;;8.70;;
29200;SDS011;16244;51.956;12.980;2023-04-15T14:18:15;10.27;;;9.47;;
29200;SDS011;16244;51.956;12.980;2023-04-15T14:20:42;10.17;;;9.37;;
29200;SDS011;16244;51.956;12.980;2023-04-15T14:23:10;9.93;;;9.20;;
29200;SDS011;16244;51.956;12.980;2023-04-15T14:25:37;11.50;;;9.83;;